Time;durP1;ratioP1;P1;durP2;ratioP2;P2;SDS_P1;SDS_P2;PMS_P1;PMS_P2;Temp;Humidity;BMP_temperature;BMP_pressure;BME280_temperature;BME280_humidity;BME280_pressure;Samples;Min_cycle;Max_cycle;Signal;HPM_P1;HPM_P2
2023/01/05 00:02:40;;;;;;;3.05;1.45;;;;;;;10.79;100.00;99969.25;12178131;19;20062;-79
2023/01/05 00:06:42;;;;;;;2.00;1.23;;;;;;;10.81;100.00;99966.25;12180259;19;20068;-79
2023/01/05 00:23:45;;;;;;;3.10;0.90;;;;;;;10.85;100.00;99957.25;12180993;19;20042;-79
2023/01/05 00:27:50;;;;;;;5.13;1.35;;;;;;;10.86;100.00;99934.13;12178878;19;20031;-78
2023/01/05 00:31:52;;;;;;;2.83;0.85;;;;;;;10.86;100.00;99936.88;12154535;19;20031;-79
2023/01/05 00:35:54;;;;;;;;;;;;;;;10.85;100.00;99937.09;12181378;19;20006;-78
2023/01/05 00:39:56;;;;;;;1.50;0.50;;;;;;;10.93;100.00;99932.03;12155344;19;19922;-79
2023/01/05 00:43:58;;;;;;;0.95;0.52;;;;;;;10.91;100.00;99942.47;12182819;19;20003;-79
2023/01/05 00:47:59;;;;;;;1.35;0.57;;;;;;;10.94;100.00;99933.69;12195235;19;20006;-78
2023/01/05 00:52:01;;;;;;;2.05;0.43;;;;;;;10.96;100.00;99927.94;12165379;19;20015;-79
2023/01/05 00:56:03;;;;;;;0.45;0.32;;;;;;;11.07;100.00;99935.31;12191907;19;20030;-79
2023/01/05 01:00:10;;;;;;;0.50;0.30;;;;;;;11.13;100.00;99925.19;12187558;19;20035;-79
2023/01/05 01:04:12;;;;;;;0.35;0.30;;;;;;;11.13;100.00;99914.16;12168810;19;20075;-79
2023/01/05 01:08:15;;;;;;;0.70;0.50;;;;;;;11.12;100.00;99885.75;12186625;19;20002;-78
2023/01/05 01:12:16;;;;;;;0.80;0.40;;;;;;;11.11;100.00;99883.25;12195921;19;20042;-79
2023/01/05 01:16:18;;;;;;;0.30;0.30;;;;;;;11.10;100.00;99898.94;12167732;19;20575;-79
2023/01/05 01:20:20;;;;;;;0.57;0.35;;;;;;;11.18;100.00;99903.19;12182034;19;20378;-79
2023/01/05 01:24:26;;;;;;;0.50;0.40;;;;;;;11.25;100.00;99914.91;12182174;19;20010;-79
2023/01/05 01:28:28;;;;;;;1.00;0.40;;;;;;;11.27;100.00;99923.75;12160958;19;20594;-79
2023/01/05 01:32:29;;;;;;;1.63;0.40;;;;;;;11.35;100.00;99939.06;12180021;19;20027;-80
2023/01/05 01:36:31;;;;;;;0.70;0.40;;;;;;;11.41;100.00;99954.59;12193077;19;20027;-80
2023/01/05 01:40:40;;;;;;;1.02;0.40;;;;;;;11.43;100.00;99970.91;12171165;19;20033;-76
2023/01/05 01:44:48;;;;;;;1.35;0.70;;;;;;;11.41;100.00;99991.31;12183068;19;20003;-78
2023/01/05 01:49:02;;;;;;;1.70;0.65;;;;;;;11.32;100.00;100000.25;12179942;19;20015;-78
2023/01/05 01:53:18;;;;;;;1.23;0.63;;;;;;;11.23;100.00;99997.06;12181749;19;20448;-78
2023/01/05 01:57:21;;;;;;;0.70;0.57;;;;;;;11.15;100.00;100011.25;12177977;19;20010;-77
2023/01/05 02:01:22;;;;;;;1.08;0.60;;;;;;;11.10;100.00;99994.66;12158338;19;20023;-78
2023/01/05 02:05:30;;;;;;;3.60;0.70;;;;;;;11.12;100.00;99989.69;12183336;19;20758;-77
2023/01/05 02:09:32;;;;;;;0.80;0.50;;;;;;;11.13;100.00;99994.97;12183326;19;20065;-77
2023/01/05 02:13:36;;;;;;;1.20;0.70;;;;;;;11.12;100.00;99989.69;12159127;19;20006;-77
2023/01/05 02:18:01;;;;;;;2.08;0.70;;;;;;;11.19;100.00;99982.13;12178480;19;20002;-78
2023/01/05 02:22:49;;;;;;;1.83;1.02;;;;;;;11.18;100.00;99978.53;12156685;19;20097;-79
2023/01/05 02:26:57;;;;;;;2.10;1.13;;;;;;;11.14;100.00;99970.97;12179925;19;20027;-78
2023/01/05 02:31:01;;;;;;;1.98;1.00;;;;;;;11.12;100.00;99975.91;12157226;19;20003;-78
2023/01/05 02:35:26;;;;;;;2.60;1.55;;;;;;;11.12;100.00;99970.38;12177984;19;20277;-78
2023/01/05 02:39:44;;;;;;;2.38;1.02;;;;;;;11.11;100.00;99966.81;12177846;19;20475;-78
2023/01/05 02:43:46;;;;;;;2.13;0.85;;;;;;;11.11;100.00;99969.56;12154385;19;20050;-78
2023/01/05 02:47:48;;;;;;;3.53;1.05;;;;;;;11.11;100.00;99977.00;12171922;19;20007;-80
2023/01/05 02:51:54;;;;;;;3.60;1.30;;;;;;;11.13;100.00;99983.13;12173210;19;20054;-79
2023/01/05 02:56:00;;;;;;;4.40;0.98;;;;;;;11.16;100.00;99985.38;12156465;19;20007;-80
2023/01/05 03:00:09;;;;;;;4.50;0.90;;;;;;;11.21;100.00;99992.88;12173427;19;20006;-78
2023/01/05 03:04:19;;;;;;;2.42;1.00;;;;;;;11.23;100.00;99987.97;12156392;19;20436;-79
2023/01/05 03:08:23;;;;;;;4.97;1.15;;;;;;;11.19;100.00;99993.16;12174016;19;20006;-79
2023/01/05 03:17:00;;;;;;;3.03;1.13;;;;;;;11.24;100.00;99995.97;12159726;19;20739;-79
2023/01/05 03:21:03;;;;;;;4.43;1.00;;;;;;;11.24;100.00;100003.41;12177051;19;20023;-78
2023/01/05 03:38:46;;;;;;;8.68;1.55;;;;;;;10.92;100.00;100013.06;12220630;19;20034;-79
2023/01/05 03:42:48;;;;;;;8.20;1.55;;;;;;;10.84;100.00;100012.63;12187998;19;20002;-80
2023/01/05 03:46:51;;;;;;;9.13;2.25;;;;;;;10.81;100.00;100013.13;12164543;19;20010;-79
2023/01/05 03:50:53;;;;;;;16.03;2.20;;;;;;;10.71;100.00;100030.31;12196983;19;20433;-79
2023/01/05 03:54:57;;;;;;;7.55;1.73;;;;;;;10.69;100.00;100040.75;12176056;19;20118;-80
2023/01/05 03:58:58;;;;;;;14.65;2.28;;;;;;;10.64;100.00;100059.91;12196386;19;20063;-79
2023/01/05 04:03:00;;;;;;;5.50;1.63;;;;;;;10.61;100.00;100072.25;12192905;19;20017;-78
2023/01/05 04:07:02;;;;;;;14.35;2.17;;;;;;;10.63;100.00;100081.13;12174025;19;20002;-80
2023/01/05 04:11:15;;;;;;;12.05;1.80;;;;;;;10.60;100.00;100102.84;12193377;19;20511;-79
2023/01/05 04:15:21;;;;;;;12.52;1.73;;;;;;;10.57;100.00;100086.78;12189902;19;20009;-79
2023/01/05 04:19:26;;;;;;;9.25;2.15;;;;;;;10.61;100.00;100105.31;12168597;19;20356;-80
2023/01/05 04:23:29;;;;;;;10.40;1.77;;;;;;;10.55;100.00;100111.81;12188233;19;20356;-80
2023/01/05 04:27:31;;;;;;;10.45;2.50;;;;;;;10.54;100.00;100098.28;12194925;19;20010;-80
2023/01/05 04:31:33;;;;;;;11.05;1.60;;;;;;;10.47;100.00;100098.44;12170538;19;20014;-79
2023/01/05 04:35:35;;;;;;;8.57;1.80;;;;;;;10.40;100.00;100092.19;12226477;19;20017;-78
2023/01/05 04:39:37;;;;;;;8.55;1.40;;;;;;;10.39;100.00;100096.03;12250327;19;20007;-78
2023/01/05 04:43:39;;;;;;;5.47;1.30;;;;;;;10.40;100.00;100095.78;12184441;19;20006;-81
2023/01/05 04:47:41;;;;;;;9.65;1.98;;;;;;;10.38;100.00;100102.59;12200346;19;20006;-79
2023/01/05 04:51:44;;;;;;;12.02;1.98;;;;;;;10.40;100.00;100109.56;12195283;19;20031;-79
2023/01/05 04:55:47;;;;;;;8.88;1.48;;;;;;;10.35;100.00;100101.19;12178472;19;20015;-80
2023/01/05 04:59:49;;;;;;;15.25;1.90;;;;;;;10.36;100.00;100107.53;12206320;19;20038;-81
2023/01/05 05:03:51;;;;;;;8.70;1.60;;;;;;;10.38;100.00;100111.75;12196809;19;20011;-79
2023/01/05 05:07:55;;;;;;;13.27;2.40;;;;;;;10.39;100.00;100121.66;12177286;19;20022;-81
2023/01/05 05:12:00;;;;;;;11.30;1.88;;;;;;;10.41;100.00;100119.53;12192288;19;20010;-82
2023/01/05 05:16:04;;;;;;;9.75;1.80;;;;;;;10.41;100.00;100126.91;12176090;19;20045;-79
2023/01/05 05:20:08;;;;;;;12.25;1.48;;;;;;;10.49;100.00;100130.16;12192241;19;20006;-79
2023/01/05 05:24:11;;;;;;;7.40;1.27;;;;;;;10.53;100.00;100137.94;12196149;19;20011;-80
2023/01/05 05:28:17;;;;;;;9.63;2.30;;;;;;;10.57;100.00;100141.91;12178079;19;21079;-81
2023/01/05 05:32:18;;;;;;;8.75;1.83;;;;;;;10.57;100.00;100144.66;12206996;19;20026;-77
2023/01/05 05:36:21;;;;;;;12.23;2.03;;;;;;;10.54;100.00;100148.72;12209680;19;20011;-77
2023/01/05 05:40:25;;;;;;;11.18;1.60;;;;;;;10.60;100.00;100146.91;12190424;19;20025;-81
2023/01/05 05:44:26;;;;;;;10.63;1.83;;;;;;;10.63;100.00;100146.44;12205985;19;20011;-80
2023/01/05 05:48:28;;;;;;;11.98;2.00;;;;;;;10.62;100.00;100150.25;12206520;19;20006;-81
2023/01/05 05:52:29;;;;;;;12.68;2.13;;;;;;;10.61;100.00;100148.59;12183108;19;20007;-79
2023/01/05 05:56:31;;;;;;;10.15;1.45;;;;;;;10.60;100.00;100160.69;12206742;19;20029;-79
2023/01/05 06:00:33;;;;;;;14.10;2.20;;;;;;;10.59;100.00;100153.50;12200755;19;20739;-79
2023/01/05 06:04:35;;;;;;;10.13;1.40;;;;;;;10.59;100.00;100162.63;12185630;19;20002;-80
2023/01/05 06:08:37;;;;;;;10.80;1.42;;;;;;;10.60;100.00;100166.22;12235628;19;20005;-81
2023/01/05 06:12:38;;;;;;;12.15;2.10;;;;;;;10.61;100.00;100165.13;12235828;19;20035;-77
2023/01/05 06:16:41;;;;;;;6.95;1.90;;;;;;;10.64;100.00;100170.16;12230847;19;20010;-76
2023/01/05 06:20:43;;;;;;;14.30;1.88;;;;;;;10.65;100.00;100167.16;12261826;19;20016;-75
2023/01/05 06:24:46;;;;;;;12.77;2.25;;;;;;;10.68;100.00;100168.59;12238013;19;20100;-80
2023/01/05 06:28:47;;;;;;;7.95;2.03;;;;;;;10.67;100.00;100183.44;12192911;19;20014;-78
2023/01/05 06:32:51;;;;;;;6.65;1.70;;;;;;;10.62;100.00;100173.16;12209338;19;20078;-76
2023/01/05 06:36:54;;;;;;;8.25;2.20;;;;;;;10.68;100.00;100176.88;12205696;19;20034;-80
2023/01/05 06:41:04;;;;;;;10.65;2.25;;;;;;;10.68;100.00;100179.63;12208508;19;20006;-79
2023/01/05 06:45:07;;;;;;;10.02;1.38;;;;;;;10.70;100.00;100186.56;12209442;19;20492;-76
2023/01/05 06:49:11;;;;;;;15.93;2.92;;;;;;;10.66;100.00;100190.06;12189984;19;20018;-79
2023/01/05 06:53:13;;;;;;;9.25;1.85;;;;;;;10.66;100.00;100190.88;12223513;19;20010;-80
2023/01/05 06:57:14;;;;;;;7.93;1.37;;;;;;;10.63;100.00;100196.03;12209174;19;20338;-79
2023/01/05 07:01:17;;;;;;;10.93;2.53;;;;;;;10.66;100.00;100201.91;12186801;19;20435;-79
2023/01/05 07:05:19;;;;;;;10.07;1.80;;;;;;;10.65;100.00;100204.91;12207351;19;20006;-79
2023/01/05 07:09:21;;;;;;;5.67;1.33;;;;;;;10.64;100.00;100205.97;12208479;19;20011;-78
2023/01/05 07:13:23;;;;;;;6.00;1.40;;;;;;;10.63;100.00;100212.56;12182639;19;20235;-78
2023/01/05 07:17:25;;;;;;;11.23;1.73;;;;;;;10.65;100.00;100210.44;12204394;19;20013;-80
2023/01/05 07:21:26;;;;;;;12.40;2.30;;;;;;;10.67;100.00;100217.34;12201981;19;20003;-77
2023/01/05 07:25:30;;;;;;;4.47;1.38;;;;;;;10.68;100.00;100215.47;12184388;19;19998;-80
2023/01/05 07:29:32;;;;;;;9.77;2.05;;;;;;;10.67;100.00;100230.31;12202046;19;20034;-79
2023/01/05 07:33:35;;;;;;;10.55;2.50;;;;;;;10.66;100.00;100226.72;12202999;19;20050;-78
2023/01/05 07:37:43;;;;;;;10.40;2.70;;;;;;;10.62;100.00;100233.78;12178599;19;20010;-76
2023/01/05 07:41:47;;;;;;;6.47;1.35;;;;;;;10.62;100.00;100243.94;12203446;19;20073;-78
2023/01/05 07:45:50;;;;;;;6.97;1.52;;;;;;;10.63;100.00;100240.13;12202411;19;20019;-78
2023/01/05 07:49:52;;;;;;;5.73;1.53;;;;;;;10.63;100.00;100245.66;12180582;19;20829;-78
2023/01/05 07:53:54;;;;;;;12.18;1.30;;;;;;;10.65;100.00;100244.34;12199773;19;20007;-79
2023/01/05 07:57:56;;;;;;;10.88;1.63;;;;;;;10.65;100.00;100252.59;12180630;19;20003;-77
2023/01/05 08:01:58;;;;;;;7.82;1.38;;;;;;;10.65;100.00;100260.88;12202617;19;20047;-77
2023/01/05 08:06:09;;;;;;;3.63;1.10;;;;;;;10.66;100.00;100258.94;12201542;19;19998;-79
2023/01/05 08:10:28;;;;;;;14.93;1.42;;;;;;;10.64;100.00;100269.38;12179458;19;20048;-80
2023/01/05 08:14:29;;;;;;;7.57;1.40;;;;;;;10.64;100.00;100285.91;12198489;19;20050;-79
2023/01/05 08:18:31;;;;;;;6.75;1.95;;;;;;;10.68;100.00;100287.13;12199838;19;20010;-79
2023/01/05 08:22:35;;;;;;;8.43;1.65;;;;;;;10.70;100.00;100290.47;12172116;19;20408;-80
2023/01/05 08:26:38;;;;;;;10.30;1.73;;;;;;;10.76;100.00;100303.28;12188186;19;20003;-79
2023/01/05 08:30:42;;;;;;;9.20;1.60;;;;;;;10.79;100.00;100297.28;12169279;19;20468;-80
2023/01/05 08:34:44;;;;;;;11.27;2.45;;;;;;;10.85;100.00;100301.84;12173902;19;20007;-78
2023/01/05 08:38:53;;;;;;;9.63;1.88;;;;;;;10.93;100.00;100304.25;12195797;19;20010;-77
2023/01/05 08:42:56;;;;;;;10.30;2.60;;;;;;;11.02;100.00;100309.41;12194716;19;20014;-79
2023/01/05 08:46:58;;;;;;;16.77;2.20;;;;;;;11.05;100.00;100297.88;12220776;19;20468;-81
2023/01/05 08:51:06;;;;;;;6.90;2.20;;;;;;;11.08;100.00;100300.16;12181588;19;20014;-78
2023/01/05 08:55:08;;;;;;;13.10;2.40;;;;;;;11.07;100.00;100296.56;12177143;19;20067;-79
2023/01/05 08:59:12;;;;;;;13.40;1.83;;;;;;;11.13;100.00;100305.81;12202355;19;20161;-78
2023/01/05 09:03:14;;;;;;;11.00;2.30;;;;;;;11.26;100.00;100322.09;12198852;19;20019;-77
2023/01/05 09:07:16;;;;;;;13.13;1.55;;;;;;;11.30;100.00;100312.25;12186582;19;20726;-78
2023/01/05 09:11:24;;;;;;;12.52;3.28;;;;;;;11.34;100.00;100318.97;12212527;19;20010;-80
2023/01/05 09:15:33;;;;;;;8.75;1.85;;;;;;;11.43;100.00;100321.34;12209341;19;20011;-78
2023/01/05 09:19:36;;;;;;;9.65;2.10;;;;;;;11.49;100.00;100321.22;12216298;19;20003;-80
2023/01/05 09:23:40;;;;;;;11.25;2.22;;;;;;;11.53;100.00;100332.59;12210803;19;20006;-78
2023/01/05 09:27:41;;;;;;;9.37;1.93;;;;;;;11.62;100.00;100333.88;12195968;19;20055;-78
2023/01/05 09:31:44;;;;;;;8.40;1.50;;;;;;;11.60;100.00;100344.31;12204523;19;20247;-77
2023/01/05 09:35:56;;;;;;;9.18;1.42;;;;;;;11.73;100.00;100341.31;12205179;19;20014;-80
2023/01/05 09:39:57;;;;;;;8.50;1.63;;;;;;;11.76;100.00;100340.00;12179981;19;20010;-77
2023/01/05 09:44:03;;;;;;;6.47;1.75;;;;;;;11.84;100.00;100350.66;12229202;19;20030;-78
2023/01/05 09:48:10;;;;;;;14.50;2.38;;;;;;;11.91;100.00;100356.06;12253581;19;20007;-77
2023/01/05 09:52:19;;;;;;;10.07;1.90;;;;;;;11.99;100.00;100350.16;12196522;19;20006;-81
2023/01/05 09:56:26;;;;;;;6.22;2.00;;;;;;;12.07;100.00;100353.34;12213147;19;20023;-78
2023/01/05 10:01:13;;;;;;;7.18;1.70;;;;;;;12.15;100.00;100354.03;12195004;19;20026;-79
2023/01/05 10:05:17;;;;;;;9.10;1.60;;;;;;;12.24;100.00;100350.63;12211890;19;20013;-79
2023/01/05 10:09:33;;;;;;;5.22;1.67;;;;;;;12.36;100.00;100358.84;12218334;19;20007;-79
2023/01/05 10:13:53;;;;;;;10.40;1.75;;;;;;;12.42;100.00;100345.97;12188826;19;20471;-79
2023/01/05 10:18:01;;;;;;;10.40;2.00;;;;;;;12.36;100.00;100358.03;12209945;19;20039;-80
2023/01/05 10:22:17;;;;;;;13.02;2.13;;;;;;;12.41;100.00;100366.41;12180564;19;20422;-78
2023/01/05 10:26:32;;;;;;;12.38;2.47;;;;;;;12.52;100.00;100362.72;12217549;19;20007;-80
2023/01/05 10:31:01;;;;;;;14.18;2.25;;;;;;;12.59;100.00;100363.41;12190750;19;20010;-78
2023/01/05 10:35:20;;;;;;;8.73;1.50;;;;;;;12.56;98.92;100366.69;12209155;19;20026;-79
2023/01/05 10:40:19;;;;;;;9.30;2.60;;;;;;;12.66;97.88;100366.84;12172827;19;20006;-79
2023/01/05 10:44:34;;;;;;;13.27;2.13;;;;;;;12.73;97.41;100378.59;12197980;19;20055;-81
2023/01/05 10:48:38;;;;;;;11.43;2.55;;;;;;;12.65;96.28;100378.19;12182489;19;20006;-78
2023/01/05 10:52:40;;;;;;;12.95;2.30;;;;;;;12.72;96.56;100379.69;12199251;19;20038;-79
2023/01/05 10:56:42;;;;;;;10.80;2.00;;;;;;;12.76;96.70;100369.81;12215340;19;20003;-79
2023/01/05 11:00:44;;;;;;;14.18;2.17;;;;;;;12.77;94.85;100376.19;12181455;19;20010;-79
2023/01/05 11:04:47;;;;;;;13.85;2.70;;;;;;;12.81;95.07;100368.22;12205271;19;20010;-78
2023/01/05 11:08:50;;;;;;;13.05;2.72;;;;;;;12.91;94.98;100376.66;12203106;19;20011;-78
2023/01/05 11:13:00;;;;;;;10.13;2.22;;;;;;;12.97;92.64;100378.44;12176630;19;20111;-80
2023/01/05 11:17:06;;;;;;;11.70;2.60;;;;;;;13.10;93.16;100380.84;12191621;19;20050;-78
2023/01/05 11:21:42;;;;;;;15.07;2.53;;;;;;;13.15;90.65;100380.13;12196917;19;19999;-80
2023/01/05 11:25:45;;;;;;;13.18;2.90;;;;;;;13.17;91.61;100370.44;12180290;19;20492;-78
2023/01/05 11:30:19;;;;;;;8.38;2.20;;;;;;;13.11;88.67;100385.28;12196296;19;20038;-79
2023/01/05 11:34:40;;;;;;;10.02;2.45;;;;;;;13.21;86.40;100382.69;12175624;19;20377;-82
2023/01/05 11:38:52;;;;;;;11.65;2.22;;;;;;;13.30;88.29;100385.91;12194406;19;20085;-79
2023/01/05 11:42:54;;;;;;;12.07;2.40;;;;;;;13.36;88.43;100381.28;12172461;19;20092;-78
2023/01/05 11:46:56;;;;;;;13.07;3.55;;;;;;;13.46;88.30;100378.66;12196314;19;20059;-78
2023/01/05 11:50:58;;;;;;;16.88;2.85;;;;;;;13.52;85.07;100382.34;12195795;19;20006;-80
2023/01/05 11:55:18;;;;;;;11.82;2.13;;;;;;;13.49;84.99;100391.16;12177045;19;20030;-78
2023/01/05 11:59:29;;;;;;;14.05;2.20;;;;;;;13.55;85.27;100379.88;12196882;19;21257;-77
2023/01/05 12:03:56;;;;;;;16.63;3.00;;;;;;;13.58;84.01;100386.84;12200619;19;21667;-78
2023/01/05 12:08:09;;;;;;;13.25;2.78;;;;;;;13.52;84.13;100385.09;12175711;19;20642;-79
2023/01/05 12:12:22;;;;;;;11.90;3.30;;;;;;;13.54;84.91;100383.75;12198682;19;20014;-77
2023/01/05 12:16:45;;;;;;;13.40;2.47;;;;;;;13.39;84.09;100384.38;12183550;19;20034;-80
2023/01/05 12:20:58;;;;;;;12.35;2.22;;;;;;;13.34;84.72;100398.13;12207025;19;20360;-81
2023/01/05 12:25:07;;;;;;;12.85;2.55;;;;;;;13.40;85.66;100385.22;12196108;19;20099;-78
2023/01/05 12:29:28;;;;;;;8.13;2.22;;;;;;;13.41;84.77;100392.41;12220159;19;20024;-81
2023/01/05 12:34:30;;;;;;;14.82;2.72;;;;;;;13.54;85.61;100381.00;12238555;19;20007;-81
2023/01/05 12:39:05;;;;;;;13.57;2.85;;;;;;;13.65;85.11;100393.03;12243885;19;20002;-82
2023/01/05 12:43:22;;;;;;;11.70;3.42;;;;;;;14.03;82.89;100389.38;12205074;19;20011;-81
2023/01/05 12:47:42;;;;;;;20.48;2.80;;;;;;;13.95;83.62;100388.97;12221718;19;20002;-81
2023/01/05 12:51:52;;;;;;;11.93;2.50;;;;;;;13.73;84.43;100394.53;12196516;19;21288;-80
2023/01/05 12:55:57;;;;;;;14.02;2.13;;;;;;;13.45;85.28;100399.13;12222744;19;20006;-84
2023/01/05 13:00:10;;;;;;;16.50;2.78;;;;;;;13.39;86.17;100400.16;12220723;19;20412;-80
2023/01/05 13:04:35;;;;;;;13.02;2.80;;;;;;;13.16;87.45;100399.22;12200859;19;20010;-82
2023/01/05 13:08:58;;;;;;;9.32;2.10;;;;;;;12.96;88.98;100390.59;12222124;19;20500;-81
2023/01/05 13:13:05;;;;;;;12.45;3.72;;;;;;;12.76;90.60;100400.22;12201970;19;20018;-79
2023/01/05 13:17:21;;;;;;;12.80;2.45;;;;;;;12.67;91.00;100395.34;12226648;19;20014;-82
2023/01/05 13:21:30;;;;;;;12.80;2.67;;;;;;;12.52;91.53;100394.00;12219602;19;20023;-81
2023/01/05 13:25:52;;;;;;;17.80;2.90;;;;;;;12.55;90.63;100403.69;12196231;19;20010;-81
2023/01/05 13:29:59;;;;;;;15.60;2.60;;;;;;;12.54;91.23;100410.31;12218676;19;20015;-80
2023/01/05 13:34:45;;;;;;;8.98;2.10;;;;;;;12.68;91.12;100403.41;12196186;19;20029;-80
2023/01/05 13:39:12;;;;;;;12.73;2.08;;;;;;;12.73;90.80;100413.69;12217282;19;20034;-81
2023/01/05 13:43:31;;;;;;;6.97;1.90;;;;;;;12.67;90.99;100409.16;12189516;19;20045;-81
2023/01/05 13:47:51;;;;;;;11.25;1.90;;;;;;;12.58;90.96;100408.72;12214955;19;20011;-80
2023/01/05 13:52:06;;;;;;;11.63;2.00;;;;;;;12.46;91.96;100410.72;12188526;19;20000;-79
2023/01/05 13:56:26;;;;;;;9.10;2.10;;;;;;;12.41;92.91;100413.41;12217185;19;20032;-79
2023/01/05 14:00:32;;;;;;;13.18;2.28;;;;;;;12.23;94.44;100415.28;12214742;19;20010;-78
2023/01/05 14:04:34;;;;;;;11.32;2.60;;;;;;;12.23;95.04;100409.75;12192591;19;20046;-80
2023/01/05 14:08:38;;;;;;;17.60;2.70;;;;;;;12.17;96.36;100410.72;12214914;19;20007;-79
2023/01/05 14:12:50;;;;;;;19.00;2.38;;;;;;;12.13;97.34;100405.94;12194790;19;20006;-80
2023/01/05 14:16:52;;;;;;;13.57;2.85;;;;;;;12.07;97.56;100410.50;12218272;19;20464;-80
2023/01/05 14:20:54;;;;;;;13.98;2.55;;;;;;;12.00;98.46;100427.22;12216285;19;20011;-81
2023/01/05 14:24:57;;;;;;;15.93;2.55;;;;;;;11.90;98.60;100423.41;12195405;19;20007;-80
2023/01/05 14:29:01;;;;;;;14.45;2.78;;;;;;;11.75;99.97;100424.75;12214794;19;20031;-79
2023/01/05 14:33:05;;;;;;;20.48;2.63;;;;;;;11.58;100.00;100418.28;12213494;19;20337;-82
2023/01/05 14:37:21;;;;;;;17.30;3.92;;;;;;;11.49;100.00;100426.09;12194147;19;20006;-80
2023/01/05 14:41:28;;;;;;;12.30;2.70;;;;;;;11.44;100.00;100428.72;12214356;19;20007;-81
2023/01/05 14:45:33;;;;;;;10.65;3.60;;;;;;;11.43;100.00;100435.31;12217120;19;20006;-81
2023/01/05 14:49:51;;;;;;;14.73;3.28;;;;;;;11.50;100.00;100440.72;12208318;19;20011;-79
2023/01/05 14:54:02;;;;;;;16.58;2.95;;;;;;;11.53;100.00;100449.34;12250978;19;20068;-79
2023/01/05 14:58:10;;;;;;;14.20;2.50;;;;;;;11.55;100.00;100440.84;12208840;19;20027;-81
2023/01/05 15:02:25;;;;;;;16.70;3.15;;;;;;;11.59;100.00;100439.28;12210803;19;20013;-82
2023/01/05 15:06:47;;;;;;;13.25;2.92;;;;;;;11.59;100.00;100450.31;12210187;19;20468;-81
2023/01/05 15:11:27;;;;;;;15.07;3.05;;;;;;;11.59;100.00;100458.59;12191055;19;20018;-80
2023/01/05 15:15:46;;;;;;;17.17;2.67;;;;;;;11.57;100.00;100455.22;12209596;19;20520;-82
2023/01/05 15:20:21;;;;;;;10.20;3.17;;;;;;;11.59;100.00;100448.38;12190413;19;20010;-79
2023/01/05 15:24:55;;;;;;;19.40;3.72;;;;;;;11.63;100.00;100460.66;12215705;19;20669;-82
2023/01/05 15:29:17;;;;;;;11.23;3.28;;;;;;;11.64;100.00;100455.97;12191790;19;20356;-80
2023/01/05 15:33:39;;;;;;;13.05;3.20;;;;;;;11.64;100.00;100455.97;12211570;19;20070;-81
2023/01/05 15:37:42;;;;;;;14.52;3.03;;;;;;;11.61;100.00;100454.50;12187134;19;20007;-80
2023/01/05 15:41:44;;;;;;;18.48;3.42;;;;;;;11.60;100.00;100458.38;12207594;19;20010;-81
2023/01/05 15:45:52;;;;;;;9.63;2.57;;;;;;;11.61;100.00;100461.97;12190744;19;20119;-79
2023/01/05 15:50:00;;;;;;;17.00;3.50;;;;;;;11.59;100.00;100442.03;12210105;19;20030;-81
2023/01/05 15:54:04;;;;;;;15.88;3.47;;;;;;;11.60;100.00;100444.56;12213627;19;20325;-80
2023/01/05 15:58:14;;;;;;;11.32;3.33;;;;;;;11.58;100.00;100446.72;12191176;19;20006;-80
2023/01/05 16:02:21;;;;;;;18.30;3.50;;;;;;;11.55;100.00;100451.88;12214022;19;20467;-83
2023/01/05 16:06:26;;;;;;;14.90;4.15;;;;;;;11.49;100.00;100448.16;12215567;19;20011;-81
2023/01/05 16:10:38;;;;;;;16.42;3.25;;;;;;;11.41;100.00;100449.34;12191346;19;20030;-80
2023/01/05 16:14:44;;;;;;;;;;;;;;;11.39;100.00;100465.31;12211557;19;20587;-81
2023/01/05 16:18:52;;;;;;;16.38;3.95;;;;;;;11.33;100.00;100459.91;12192099;19;19919;-82
2023/01/05 16:22:58;;;;;;;19.55;3.50;;;;;;;11.20;100.00;100460.97;12210985;19;20016;-80
2023/01/05 16:27:11;;;;;;;12.38;3.13;;;;;;;11.17;100.00;100462.28;12216629;19;20345;-81
2023/01/05 16:31:27;;;;;;;9.73;2.63;;;;;;;11.18;100.00;100463.13;12191868;19;20078;-82
2023/01/05 16:35:49;;;;;;;12.20;3.20;;;;;;;11.20;100.00;100469.25;12215710;19;20015;-79
2023/01/05 16:40:00;;;;;;;14.32;4.03;;;;;;;11.22;100.00;100480.91;12190857;19;20013;-80
2023/01/05 16:44:02;;;;;;;14.18;3.28;;;;;;;11.21;100.00;100470.94;12213255;19;20011;-80
2023/01/05 16:48:39;;;;;;;14.40;3.20;;;;;;;11.25;100.00;100460.28;12217458;19;20006;-82
2023/01/05 16:52:40;;;;;;;12.63;3.10;;;;;;;11.26;100.00;100459.19;12193663;19;20026;-81
2023/01/05 16:57:00;;;;;;;11.75;3.15;;;;;;;11.20;100.00;100463.75;12215035;19;20007;-82
2023/01/05 17:01:19;;;;;;;13.57;3.50;;;;;;;11.14;100.00;100461.94;12189733;19;20010;-80
2023/01/05 17:05:34;;;;;;;16.25;3.38;;;;;;;11.09;100.00;100461.78;12214109;19;20010;-83
2023/01/05 17:09:41;;;;;;;16.77;3.28;;;;;;;11.03;100.00;100462.75;12214999;19;20473;-81
2023/01/05 17:13:51;;;;;;;8.35;3.10;;;;;;;10.95;100.00;100458.44;12192349;19;20003;-81
2023/01/05 17:17:56;;;;;;;18.08;3.70;;;;;;;10.90;100.00;100453.63;12214524;19;20010;-81
2023/01/05 17:22:00;;;;;;;20.13;3.83;;;;;;;10.80;100.00;100456.13;12191884;19;20002;-81
2023/01/05 17:26:08;;;;;;;14.82;3.30;;;;;;;10.68;100.00;100458.84;12214671;19;20027;-82
2023/01/05 17:30:20;;;;;;;19.00;3.00;;;;;;;10.58;100.00;100463.22;12221578;19;20011;-81
2023/01/05 17:34:22;;;;;;;17.00;3.60;;;;;;;10.54;100.00;100460.09;12202004;19;20014;-83
2023/01/05 17:38:24;;;;;;;17.35;4.20;;;;;;;10.57;100.00;100464.31;12221119;19;20019;-82
2023/01/05 17:42:44;;;;;;;21.60;4.50;;;;;;;10.63;100.00;100461.44;12222391;19;20062;-80
2023/01/05 17:46:46;;;;;;;15.70;3.15;;;;;;;10.76;100.00;100454.88;12197293;19;19998;-82
2023/01/05 17:50:49;;;;;;;;;;;;;;;10.85;100.00;100461.75;12219452;19;20464;-81
2023/01/05 17:54:54;;;;;;;12.85;3.25;;;;;;;11.00;100.00;100460.47;12198861;19;19914;-80
2023/01/05 17:58:56;;;;;;;10.05;3.80;;;;;;;11.05;100.00;100466.13;12220598;19;20023;-80
2023/01/05 18:02:57;;;;;;;19.98;4.75;;;;;;;11.14;100.00;100461.94;12217868;19;20007;-81
2023/01/05 18:07:01;;;;;;;18.15;4.07;;;;;;;11.20;100.00;100463.75;12198498;19;20011;-79
2023/01/05 18:11:06;;;;;;;15.25;4.18;;;;;;;11.23;100.00;100460.50;12217090;19;20079;-80
2023/01/05 18:15:14;;;;;;;15.05;4.22;;;;;;;11.24;100.00;100464.09;12216141;19;20704;-80
2023/01/05 18:19:15;;;;;;;18.77;4.28;;;;;;;11.26;100.00;100456.44;12194111;19;20010;-81
2023/01/05 18:23:19;;;;;;;13.20;4.20;;;;;;;11.30;100.00;100457.63;12215765;19;20010;-81
2023/01/05 18:27:21;;;;;;;15.15;3.92;;;;;;;11.32;100.00;100453.53;12219210;19;20006;-79
2023/01/05 18:31:24;;;;;;;20.10;4.77;;;;;;;11.35;100.00;100444.78;12196077;19;20023;-79
2023/01/05 18:35:26;;;;;;;;;;;;;;;11.32;100.00;100448.03;12222621;19;20042;-80
2023/01/05 18:39:33;;;;;;;11.18;3.88;;;;;;;11.34;100.00;100445.06;12224560;19;19915;-81
2023/01/05 18:43:35;;;;;;;15.68;3.45;;;;;;;11.35;100.00;100444.78;12201616;19;20480;-80
2023/01/05 18:47:37;;;;;;;14.27;3.45;;;;;;;11.43;100.00;100445.53;12233969;19;20010;-79
2023/01/05 18:51:42;;;;;;;17.90;4.10;;;;;;;11.46;100.00;100437.59;12220936;19;21452;-79
2023/01/05 18:55:43;;;;;;;16.85;3.53;;;;;;;11.47;100.00;100435.69;12225300;19;20103;-81
2023/01/05 18:59:46;;;;;;;10.50;3.30;;;;;;;11.52;100.00;100442.16;12211744;19;20990;-81
2023/01/05 19:03:51;;;;;;;13.53;2.97;;;;;;;11.53;100.00;100437.47;12189014;19;20015;-81
2023/01/05 19:07:53;;;;;;;14.27;3.25;;;;;;;11.53;100.00;100432.78;12208550;19;20007;-82
2023/01/05 19:11:57;;;;;;;19.75;3.80;;;;;;;11.55;100.00;100429.81;12188477;19;19999;-81
2023/01/05 19:16:02;;;;;;;10.75;3.08;;;;;;;11.57;100.00;100444.19;12166513;19;20034;-79
2023/01/05 19:20:04;;;;;;;19.95;4.45;;;;;;;11.61;100.00;100429.66;12197075;19;20627;-80